Timeline UpdatesTrip UpdatesNews PostsPvt PostsTravel TipsAdmin PostsConv PostsFollowed PostsChat RequestsBlog PostsPNR Posts

Disclaimer
Search
 
 
Fri Apr 18, 2014 00:40:34 ISTHomeTrainsΣChainsAtlasPNRForumGalleryNewsFAQTripsMembersLoginFeedback
No Recent News for this Train
Other Trains in the News **new
Latest...
.
Sat Sep 10, 2011 (03:37PM)
⇐ Return Journey: Train# 11464

11463/Somnath-Jabalpur Express

Jul 02 2013 (6:48PM)
Change Departure Station:
Change Arrival Station:
Post a Train Travel TipPost a Train Travel Tip **new
Post a Comment/Question/Picture/VideoPost a Comment/Question/Picture/Video
Pantry/Catering
✕ NO Pantry Car
✓ Catering Avbl
There is NO Pantry.; CATERING AVAILABLE. Food served at Jetalsar.
Loco/Rake Reversals
BRC/Vadodara Junction (7); ET/Itarsi Junction (7);
RSA - Rake Sharing
Has RSA with 11465/11466 Somnath-Jabalpur Express.
Rake/Coach Composition
LOCO(Diesel)-SLR/LD-GEN-GEN-S11-S10-S9-S8-S7-S6-S5-S4-S3-S2-S1-B3-B2-B1-A1-GEN-SLR;
Loco
WDM 2/3 of Ratlam Shed. & WAp4ET
News    PNR    Forum    Time-Table    Availability    Fare Chart    Map    Arr/Dep History    Trips    Gallery    ΣChains    X/O    Timeline    
Travel Time: 29h 20m    46 halts    Distance: 1410 km    Avg Speed: 48 km/hr
Type: Mail/Express
Zone: WCR/West Central
Departs @ 09:50 (Avg 3m late)
Platform# 1
S TWTF 
Veraval/VRL 
Arrives @ 15:10 +1 night (Avg 13m late)
Platform# 3
 M WTFS
Jabalpur Junction/JBP 

46 halts. 200 intermediate Stations between Veraval and Jabalpur Junction

Show ALL intermediate Stations  Show Old Time-Table

#CodeStation NameX/OArrivesAvgDepartsAvgHaltPFDay#KmSpeedElevZoneAddress
1SMNHSomnath (2)  -09:30+011-5.13012mWRSomnath, Gujarat
2VRL»Veraval (5)»X  09:40+209:50+310m110.0608mWRVeraval, Gujarat
3MLHAMaliya Hatina (2)X  10:20+1310:22+122m--130.26454mWRMalia, Gujarat
4KSDKeshod (2)  10:37+1610:39+162m1146.34446mWRKeshod, Gujarat
5JNDJunagadh Junction (5)  11:27+1211:29+122m--181.75886mWRJunagadh, Gujarat
6JLRJetalsar Junction (5)  11:56+1412:04+158m--1107.739108mWRRajkot, Gujarat
7VRRVirpur (2)  12:34+712:36+82m--1127.262121mWRRajkot, Gujarat
8GDLGondal (3)  12:52+812:54+72m11143.843141mWRGondal, Gujarat
9BKNGBhakti Nagar (3)  13:43-113:45+62m11179.028142mWRRajkot, Gujarat
10RJTRajkot Junction (5)  13:58+614:03+85m11185.170128mWRRajkot, Gujarat
11WKRWankaner Junction (4)X  14:39+2214:41+232m--1226.95587mWRWankaner, Gujarat
12THANThan Junction (3)  15:10+2215:12+222m11253.567138mWRThangadh, Gujarat
13SUNRSurendranagar Junction (4)X  15:55+1815:57+202m--1301.25372mWRSurendra Nagar, Gujarat
14VGViramgam Junction (5)  17:11+517:13+82m--1366.65529mWRViramgam, Gujarat
15ADIAhmedabad Junction (12)X  18:25+418:45+220m41432.05651mWRAhmedabad, Gujarat
16MHDMahemdavad Kheda Road (4)  19:15+1419:17+142m21460.07537mWRMahemdavad, Gujarat
17NDNadiad Junction (4)  19:31+1519:33+152m11477.66237mWRNadiad, Gujarat
18ANNDAnand Junction (6)X  19:51+1519:53+152m11496.15144mWRAnand, Gujarat
19BRCVadodara Junction (7)X20:35+1821:00+2125m41531.8-36mWRVadodara, Gujarat
20DRLDerolXO  21:20+3721:42+1722m11582.23181mWRKalol, Gujarat
21GDAGodhra Junction (3)X  22:28+622:30+62m21605.780122mWRGodhra, Gujarat
22DHDDahod (3)  23:25+4123:27+412m--1678.890313mWRDahod, Gujarat
23MGNMeghnagar (3)  23:49+4823:51+482m--1712.046317mWRJhabua, Madhya Pradesh
24RTMRatlam Junction (7)X  01:35+1701:50+1715m52792.375495mWRRatlam, Madhya Pradesh
25KUHKhachrod (2)X  02:12+2502:14+252m--2819.946497mWRUjjain, Madhya Pradesh
26NADNagda Junction (4)O  02:32+2002:35+253m--2833.751468mWRNagda, Madhya Pradesh
27UJNUjjain Junction (8)  03:40+1003:50+2110m--2889.376492mWRUjjain, Madhya Pradesh
28TANTarana RoadO  04:15+3404:17+342m--2920.821498mWRMaksi, Madhya Pradesh
29MKCMaksi Junction (3)X  04:45+1904:47+192m--2930.481510mWRMakshi, Madhya Pradesh
30BCHBerchha (2)  05:01+2305:03+232m--2949.266493mWRShajapur, Madhya Pradesh
31KSHKali Sindh (2)  05:14+2405:16+232m--2961.472443mWRShajapur, Madhya Pradesh
32AKDAkodia (2)  05:31+2605:33+262m12979.356460mWRDist. Shajapur, Madhya Pradesh
33SJPShujalpur (3)X  05:47+2605:49+262m--2992.463453mWRShujalpur, Madhya Pradesh
34KPPKalapipal (2)  06:01+2706:03+262m121005.070487mWRState Highway 41, Madhya Pradesh
35PRBParbati (2)X  06:16+2806:18+282m--21020.164472mWRSehore, Madhya Pradesh
36SEHSehore (2)X  06:31+3106:33+302m221034.018500mWRMP 466001, Madhya Pradesh
37BIHBairagarh (2)08:08+008:10+22m221062.531522mWRBhopal, Madhya Pradesh
38BPLBhopal Junction (6)X  08:30+1208:35+235m421072.738497mWCRBhopal, Madhya Pradesh
39HBJBhopal HabibGanj (5)  08:45+2608:47+262m421079.061496mWCRHabibGanj, Madhya Pradesh
40HBDHoshangabad (4)X  09:53+2709:55+272m--21146.331308mWCRHoshangabad, Madhya Pradesh
41ETItarsi Junction (7)X10:30+1410:45+1215m221164.471329mWCRItarsi 461111, Madhya Pradesh
42SGPSohagpur (2)X11:27+4711:29+522m--21213.976340mWCRSohagpur, Madhya Pradesh
43PPIPipariya (3)X  11:43+5311:45+592m121231.690338mWCRPiparia, Madhya Pradesh
44GARGadarwara (2)  12:18+1:0712:20+1:082m121281.058352mWCRNarsinghpur, Madhya Pradesh
45KYKareli (2)XO  12:49+1:0212:51+1:022m121309.032361mWCRKareli, Madhya Pradesh
46NUNarsinghpur (2)  13:22+4413:24+442m121325.455365mWCRNarsimhapur, Madhya Pradesh
47SRIDShridham (3)X  13:58+3214:00+312m221356.473373mWCRShridham, Madhya Pradesh
48MMLMadan Mahal (3)  14:41+2314:43+232m321406.18428mWCRJabalpur, Madhya Pradesh
49JBP•Jabalpur Junction (7)•  15:10+13-321409.6-416mWCRJabalpur, Madhya Pradesh
Scroll to Top
Scroll to Bottom